createdAt,value
2023-03-16T00:02:10.330Z,22.50
2023-03-16T00:04:37.778Z,22.51
2023-03-16T00:07:06.074Z,22.51
2023-03-16T00:09:32.951Z,22.42
2023-03-16T00:12:04.644Z,22.51
2023-03-16T00:14:32.460Z,22.43
2023-03-16T00:16:59.396Z,22.50
2023-03-16T00:19:25.975Z,22.50
2023-03-16T00:21:53.286Z,22.51
2023-03-16T00:24:20.388Z,22.50
2023-03-16T00:26:48.013Z,22.50
2023-03-16T00:29:14.989Z,22.51
2023-03-16T00:31:44.073Z,22.49
2023-03-16T00:34:11.674Z,22.42
2023-03-16T00:36:38.621Z,22.49
2023-03-16T00:39:06.906Z,22.43
2023-03-16T00:41:38.032Z,22.49
2023-03-16T00:44:05.684Z,22.49
2023-03-16T00:46:32.463Z,22.50
2023-03-16T00:48:59.320Z,22.49
2023-03-16T00:51:25.949Z,22.46
2023-03-16T00:53:52.539Z,22.49
2023-03-16T00:56:19.250Z,22.50
2023-03-16T00:58:46.000Z,22.47
2023-03-16T01:01:18.841Z,22.50
2023-03-16T01:03:46.349Z,22.48
2023-03-16T01:06:17.520Z,22.50
2023-03-16T01:08:44.655Z,22.50
2023-03-16T01:11:21.074Z,22.50
2023-03-16T01:14:13.153Z,22.49
2023-03-16T01:16:40.771Z,22.49
2023-03-16T01:19:07.873Z,22.48
2023-03-16T01:21:36.919Z,22.50
2023-03-16T01:24:04.470Z,22.49
2023-03-16T01:26:31.178Z,22.49
2023-03-16T01:28:57.782Z,22.48
2023-03-16T01:31:24.455Z,22.49
2023-03-16T01:33:52.210Z,22.48
2023-03-16T01:36:22.301Z,22.50
2023-03-16T01:38:53.998Z,22.47
2023-03-16T01:41:22.143Z,22.48
2023-03-16T01:43:48.812Z,22.48
2023-03-16T01:46:20.012Z,22.48
2023-03-16T01:49:02.038Z,22.49
2023-03-16T01:51:42.003Z,22.37
2023-03-16T01:54:14.619Z,22.47
2023-03-16T01:57:15.691Z,22.46
2023-03-16T02:00:10.548Z,22.46
2023-03-16T02:02:46.267Z,22.46
2023-03-16T02:05:30.893Z,22.45
2023-03-16T02:07:58.657Z,22.45
2023-03-16T02:10:28.891Z,22.38
2023-03-16T02:12:56.108Z,22.45
2023-03-16T02:15:22.986Z,22.45
2023-03-16T02:17:51.000Z,22.44
2023-03-16T02:20:26.331Z,22.44
2023-03-16T02:22:54.306Z,22.37
2023-03-16T02:25:26.581Z,22.44
2023-03-16T02:28:25.561Z,22.44
2023-03-16T02:30:53.407Z,22.39
2023-03-16T02:33:21.373Z,22.32
2023-03-16T02:35:48.037Z,22.43
2023-03-16T02:38:14.736Z,22.43
2023-03-16T02:40:59.299Z,22.39
2023-03-16T02:43:33.337Z,22.42
2023-03-16T02:46:25.598Z,22.39
2023-03-16T02:49:21.438Z,22.39
2023-03-16T02:51:48.334Z,22.41
2023-03-16T02:54:16.784Z,22.40
2023-03-16T02:56:43.411Z,22.40
2023-03-16T02:59:12.125Z,22.40
2023-03-16T03:01:39.214Z,22.40
2023-03-16T03:04:06.140Z,22.40
2023-03-16T03:06:32.887Z,22.39
2023-03-16T03:09:02.048Z,22.37
2023-03-16T03:11:29.523Z,22.37
2023-03-16T03:13:56.411Z,22.37
2023-03-16T03:16:26.177Z,22.36
2023-03-16T03:18:54.854Z,22.36
2023-03-16T03:21:21.866Z,22.36
2023-03-16T03:23:48.417Z,22.36
2023-03-16T03:26:15.439Z,22.35
2023-03-16T03:28:44.646Z,22.35
2023-03-16T03:31:15.348Z,22.33
2023-03-16T03:33:42.117Z,22.00
2023-03-16T03:36:08.872Z,22.33
2023-03-16T03:38:37.645Z,22.31
2023-03-16T03:41:08.045Z,22.31
2023-03-16T03:43:37.210Z,22.31
2023-03-16T03:46:07.898Z,22.20
2023-03-16T03:48:34.828Z,22.29
2023-03-16T03:51:02.444Z,22.23
2023-03-16T03:53:49.252Z,22.14
2023-03-16T03:56:41.790Z,22.27
2023-03-16T03:59:13.714Z,22.28
2023-03-16T04:02:10.882Z,22.26
2023-03-16T04:04:43.872Z,22.25
2023-03-16T04:07:12.994Z,22.25
2023-03-16T04:09:41.829Z,22.24
2023-03-16T04:12:15.341Z,22.23
2023-03-16T04:14:43.569Z,22.19
2023-03-16T04:17:10.445Z,22.22
2023-03-16T04:19:39.263Z,22.20
2023-03-16T04:22:10.892Z,22.21
2023-03-16T04:24:37.598Z,22.20
2023-03-16T04:27:04.351Z,22.19
2023-03-16T04:29:31.954Z,22.18
2023-03-16T04:31:59.023Z,22.19
2023-03-16T04:34:27.582Z,22.17
2023-03-16T04:36:58.104Z,22.18
2023-03-16T04:39:25.148Z,22.17
2023-03-16T04:41:53.661Z,22.16
2023-03-16T04:44:22.789Z,22.10
2023-03-16T04:46:50.299Z,22.15
2023-03-16T04:49:17.854Z,22.15
2023-03-16T04:51:45.606Z,22.11
2023-03-16T04:54:15.479Z,22.13
2023-03-16T04:56:43.846Z,22.14
2023-03-16T04:59:39.825Z,22.13
2023-03-16T05:02:19.431Z,22.11
2023-03-16T05:04:46.211Z,22.12
2023-03-16T05:07:12.742Z,22.10
2023-03-16T05:09:42.847Z,22.09
2023-03-16T05:12:11.351Z,22.08
2023-03-16T05:14:39.343Z,22.08
2023-03-16T05:17:27.026Z,22.03
2023-03-16T05:19:53.637Z,22.05
2023-03-16T05:22:21.195Z,22.04
2023-03-16T05:25:15.735Z,22.03
2023-03-16T05:27:51.854Z,22.03
2023-03-16T05:30:26.822Z,22.01
2023-03-16T05:32:57.833Z,22.00
2023-03-16T05:35:25.357Z,22.00
2023-03-16T05:37:53.927Z,21.97
2023-03-16T05:40:23.093Z,22.00
2023-03-16T05:43:05.246Z,22.00
2023-03-16T05:45:36.738Z,21.99
2023-03-16T05:48:10.022Z,21.98
2023-03-16T05:50:43.449Z,21.87
2023-03-16T05:53:11.542Z,21.94
2023-03-16T05:55:39.576Z,21.97
2023-03-16T05:58:09.730Z,21.97
2023-03-16T06:00:39.452Z,21.84
2023-03-16T06:03:17.911Z,21.95
2023-03-16T06:05:44.676Z,21.94
2023-03-16T06:08:11.571Z,21.95
2023-03-16T06:10:41.759Z,21.93
2023-03-16T06:13:08.351Z,21.94
2023-03-16T06:15:35.203Z,21.85
2023-03-16T06:18:03.492Z,21.80
2023-03-16T06:20:30.461Z,21.83
2023-03-16T06:22:57.674Z,21.90
2023-03-16T06:25:24.308Z,21.92
2023-03-16T06:27:51.844Z,21.92
2023-03-16T06:30:19.472Z,21.91
2023-03-16T06:32:46.157Z,21.87
2023-03-16T06:35:13.956Z,21.86
2023-03-16T06:37:59.760Z,21.82
2023-03-16T06:40:38.902Z,21.91
2023-03-16T06:43:06.361Z,21.91
2023-03-16T06:45:32.971Z,21.80
2023-03-16T06:48:00.953Z,21.90
2023-03-16T06:50:30.062Z,21.85
2023-03-16T06:52:56.909Z,21.88
2023-03-16T06:55:23.608Z,21.89
2023-03-16T06:57:50.292Z,21.73
2023-03-16T07:00:18.912Z,21.88
2023-03-16T07:02:45.679Z,21.89
2023-03-16T07:05:13.818Z,21.88
2023-03-16T07:07:42.697Z,21.87
2023-03-16T07:10:14.972Z,21.79
2023-03-16T07:12:42.315Z,21.85
2023-03-16T07:15:13.305Z,21.82
2023-03-16T07:17:40.896Z,21.70
2023-03-16T07:20:10.583Z,21.87
2023-03-16T07:22:39.530Z,21.86
2023-03-16T07:25:11.251Z,21.83
2023-03-16T07:27:43.889Z,21.86
2023-03-16T07:30:14.199Z,21.80
2023-03-16T07:32:42.862Z,21.87
2023-03-16T07:35:11.602Z,21.73
2023-03-16T07:37:39.556Z,21.85
2023-03-16T07:40:10.231Z,21.83
2023-03-16T07:42:40.080Z,21.81
2023-03-16T07:45:14.522Z,21.81
2023-03-16T07:47:43.292Z,21.87
2023-03-16T07:50:19.470Z,21.86
2023-03-16T07:52:49.451Z,21.86
2023-03-16T07:55:16.725Z,21.87
2023-03-16T07:57:47.941Z,21.76
2023-03-16T08:00:23.749Z,21.66
2023-03-16T08:02:51.829Z,21.86
2023-03-16T08:05:18.426Z,21.74
2023-03-16T08:07:49.866Z,21.84
2023-03-16T08:10:21.030Z,21.87
2023-03-16T08:13:10.814Z,21.78
2023-03-16T08:15:42.320Z,21.67
2023-03-16T08:18:17.108Z,21.88
2023-03-16T08:20:44.664Z,21.78
2023-03-16T08:23:13.144Z,21.82
2023-03-16T08:25:41.624Z,21.84
2023-03-16T08:28:15.845Z,21.77
2023-03-16T08:30:51.131Z,21.88
2023-03-16T08:33:29.069Z,21.92
2023-03-16T08:35:56.078Z,21.78
2023-03-16T08:38:22.952Z,21.96
2023-03-16T08:40:52.608Z,21.97
2023-03-16T08:43:21.773Z,21.99
2023-03-16T08:45:49.234Z,22.01
2023-03-16T08:48:18.281Z,21.91
2023-03-16T08:50:51.890Z,21.98
2023-03-16T08:53:18.962Z,22.06
2023-03-16T08:55:46.210Z,22.08
2023-03-16T08:58:14.213Z,22.02
2023-03-16T09:00:41.189Z,22.13
2023-03-16T09:03:07.866Z,22.11
2023-03-16T09:05:34.539Z,22.13
2023-03-16T09:08:01.595Z,22.13
2023-03-16T09:10:28.902Z,22.10
2023-03-16T09:12:55.714Z,22.21
2023-03-16T09:15:22.704Z,22.23
2023-03-16T09:17:50.344Z,22.25
2023-03-16T09:20:22.803Z,22.24
2023-03-16T09:22:54.572Z,22.27
2023-03-16T09:25:24.172Z,22.29
2023-03-16T09:27:51.607Z,22.30
2023-03-16T09:30:18.962Z,22.26
2023-03-16T09:32:53.111Z,22.33
2023-03-16T09:35:20.203Z,22.34
2023-03-16T09:38:04.729Z,22.36
2023-03-16T09:40:33.493Z,22.37
2023-03-16T09:43:09.159Z,22.40
2023-03-16T09:45:45.726Z,22.07
2023-03-16T09:48:14.342Z,22.36
2023-03-16T09:50:48.833Z,22.43
2023-03-16T09:53:29.858Z,22.45
2023-03-16T09:56:22.462Z,22.41
2023-03-16T09:58:51.986Z,22.46
2023-03-16T10:01:43.126Z,22.47
2023-03-16T10:04:32.357Z,22.36
2023-03-16T10:07:30.868Z,22.42
2023-03-16T10:10:20.081Z,22.50
2023-03-16T10:12:52.558Z,22.50
2023-03-16T10:15:21.107Z,22.53
2023-03-16T10:17:56.929Z,22.44
2023-03-16T10:20:34.541Z,22.51
2023-03-16T10:23:14.661Z,22.56
2023-03-16T10:25:50.309Z,22.53
2023-03-16T10:28:23.472Z,22.58
2023-03-16T10:30:53.184Z,22.55
2023-03-16T10:33:26.919Z,22.58
2023-03-16T10:36:12.711Z,22.61
2023-03-16T10:38:49.212Z,22.64
2023-03-16T10:41:19.018Z,22.63
2023-03-16T10:43:47.905Z,22.62
2023-03-16T10:46:15.301Z,22.66
2023-03-16T10:48:42.551Z,22.64
2023-03-16T10:51:15.117Z,22.65
2023-03-16T10:53:44.638Z,22.64
2023-03-16T10:56:19.915Z,22.64
2023-03-16T10:58:46.877Z,22.55
2023-03-16T11:01:23.681Z,22.62
2023-03-16T11:03:53.259Z,22.65
2023-03-16T11:06:24.698Z,22.59
2023-03-16T11:08:54.947Z,22.64
2023-03-16T11:11:27.450Z,22.62
2023-03-16T11:13:57.743Z,22.55
2023-03-16T11:16:39.736Z,22.65
2023-03-16T11:19:15.020Z,22.53
2023-03-16T11:21:59.775Z,22.57
2023-03-16T11:24:53.095Z,22.67
2023-03-16T11:27:35.151Z,22.66
2023-03-16T11:30:09.787Z,22.66
2023-03-16T11:32:40.193Z,22.48
2023-03-16T11:35:29.213Z,22.65
2023-03-16T11:38:11.073Z,22.65
2023-03-16T11:40:43.852Z,22.65
2023-03-16T11:43:35.182Z,22.64
2023-03-16T11:46:22.799Z,22.66
2023-03-16T11:49:15.515Z,22.65
2023-03-16T11:52:08.328Z,22.65
2023-03-16T11:54:58.830Z,22.65
2023-03-16T11:57:44.385Z,22.65
2023-03-16T12:00:20.490Z,22.62
2023-03-16T12:03:10.155Z,22.67
2023-03-16T12:05:57.194Z,22.68
2023-03-16T12:08:44.970Z,22.68
2023-03-16T12:11:22.352Z,22.69
2023-03-16T12:14:15.725Z,22.71
2023-03-16T12:16:53.650Z,22.72
2023-03-16T12:19:32.428Z,22.72
2023-03-16T12:22:19.895Z,22.74
2023-03-16T12:24:52.707Z,22.70
2023-03-16T12:27:24.960Z,22.76
2023-03-16T12:30:25.900Z,22.72
2023-03-16T12:33:16.715Z,22.74
2023-03-16T12:35:51.942Z,22.74
2023-03-16T12:38:37.359Z,22.74
2023-03-16T12:41:19.844Z,22.74
2023-03-16T12:43:52.106Z,22.74
2023-03-16T12:46:30.631Z,22.75
2023-03-16T12:49:01.162Z,22.76
2023-03-16T12:52:00.143Z,22.77
2023-03-16T12:54:27.509Z,22.77
2023-03-16T12:57:05.883Z,22.66
2023-03-16T12:59:42.863Z,22.78
2023-03-16T13:02:19.692Z,22.67
2023-03-16T13:04:54.515Z,22.79
2023-03-16T13:07:24.523Z,22.80
2023-03-16T13:10:17.402Z,22.80
2023-03-16T13:12:45.222Z,22.49
2023-03-16T13:15:19.992Z,22.81
2023-03-16T13:18:03.639Z,22.81
2023-03-16T13:20:54.396Z,22.82
2023-03-16T13:23:25.678Z,22.83
2023-03-16T13:26:07.585Z,22.80
2023-03-16T13:28:37.687Z,22.83
2023-03-16T13:31:19.067Z,22.79
2023-03-16T13:33:48.174Z,22.85
2023-03-16T13:36:15.666Z,22.86
2023-03-16T13:38:42.307Z,22.85
2023-03-16T13:41:14.351Z,22.78
2023-03-16T13:43:44.147Z,22.81
2023-03-16T13:46:22.432Z,22.89
2023-03-16T13:48:49.830Z,22.89
2023-03-16T13:51:20.705Z,22.90
2023-03-16T13:53:49.405Z,22.76
2023-03-16T13:56:28.374Z,22.90
2023-03-16T13:58:57.795Z,22.85
2023-03-16T14:01:30.905Z,22.93
2023-03-16T14:04:08.558Z,22.93
2023-03-16T14:06:35.933Z,22.87
2023-03-16T14:09:06.530Z,22.94
2023-03-16T14:11:33.253Z,22.95
2023-03-16T14:14:00.720Z,22.88
2023-03-16T14:16:29.776Z,22.95
2023-03-16T14:19:06.587Z,22.96
2023-03-16T14:21:34.649Z,22.95
2023-03-16T14:24:07.743Z,22.94
2023-03-16T14:26:42.773Z,22.95
2023-03-16T14:29:30.559Z,22.97
2023-03-16T14:31:58.904Z,22.97
2023-03-16T14:34:36.628Z,22.97
2023-03-16T14:37:15.781Z,22.98
2023-03-16T14:39:42.826Z,22.98
2023-03-16T14:42:28.868Z,22.98
2023-03-16T14:44:58.721Z,22.83
2023-03-16T14:47:33.510Z,23.00
2023-03-16T14:50:17.027Z,23.00
2023-03-16T14:52:45.694Z,23.00
2023-03-16T14:55:19.238Z,22.99
2023-03-16T14:57:46.465Z,23.00
2023-03-16T15:00:16.567Z,23.00
2023-03-16T15:02:51.565Z,23.00
2023-03-16T15:05:27.406Z,23.01
2023-03-16T15:07:57.150Z,22.99
2023-03-16T15:10:35.237Z,23.01
2023-03-16T15:13:12.843Z,23.00
2023-03-16T15:15:43.887Z,22.95
2023-03-16T15:18:10.825Z,23.04
2023-03-16T15:20:44.834Z,23.04
2023-03-16T15:23:16.474Z,23.05
2023-03-16T15:25:45.728Z,23.01
2023-03-16T15:28:14.573Z,23.02
2023-03-16T15:30:42.424Z,22.97
2023-03-16T15:33:12.928Z,23.00
2023-03-16T15:35:40.979Z,22.99
2023-03-16T15:38:14.755Z,22.98
2023-03-16T15:40:45.697Z,22.96
2023-03-16T15:43:13.743Z,22.95
2023-03-16T15:45:40.570Z,22.86
2023-03-16T15:48:09.121Z,22.74
2023-03-16T15:50:38.974Z,22.96
2023-03-16T15:53:29.179Z,22.94
2023-03-16T15:56:04.809Z,22.87
2023-03-16T15:58:33.532Z,22.77
2023-03-16T16:01:01.737Z,22.66
2023-03-16T16:03:28.542Z,22.54
2023-03-16T16:05:55.520Z,22.48
2023-03-16T16:08:22.654Z,22.46
2023-03-16T16:10:50.889Z,22.47
2023-03-16T16:13:23.379Z,22.50
2023-03-16T16:15:52.147Z,22.52
2023-03-16T16:18:26.588Z,22.47
2023-03-16T16:20:53.946Z,22.53
2023-03-16T16:23:20.812Z,22.52
2023-03-16T16:25:49.540Z,22.54
2023-03-16T16:28:19.713Z,22.54
2023-03-16T16:30:50.786Z,22.53
2023-03-16T16:33:25.415Z,22.53
2023-03-16T16:35:54.161Z,22.55
2023-03-16T16:38:21.909Z,22.56
2023-03-16T16:40:49.381Z,22.54
2023-03-16T16:43:32.138Z,22.29
2023-03-16T16:46:04.893Z,22.47
2023-03-16T16:48:33.354Z,22.48
2023-03-16T16:51:01.393Z,22.45
2023-03-16T16:53:28.217Z,22.40
2023-03-16T16:55:56.960Z,22.41
2023-03-16T16:58:24.880Z,22.45
2023-03-16T17:00:55.507Z,22.11
2023-03-16T17:03:28.251Z,22.42
2023-03-16T17:05:58.531Z,22.40
2023-03-16T17:08:27.031Z,22.39
2023-03-16T17:10:54.445Z,22.06
2023-03-16T17:13:29.719Z,22.36
2023-03-16T17:15:56.455Z,22.34
2023-03-16T17:18:23.132Z,22.33
2023-03-16T17:22:22.834Z,22.14
2023-03-16T17:24:49.589Z,22.28
2023-03-16T17:27:25.653Z,21.89
2023-03-16T17:29:55.071Z,22.26
2023-03-16T17:32:22.830Z,22.26
2023-03-16T17:34:50.217Z,22.26
2023-03-16T17:37:19.850Z,22.26
2023-03-16T17:39:49.002Z,22.26
2023-03-16T17:42:18.528Z,22.26
2023-03-16T17:44:50.702Z,22.19
2023-03-16T17:47:29.219Z,22.22
2023-03-16T17:49:58.497Z,22.15
2023-03-16T17:52:26.710Z,22.29
2023-03-16T17:54:54.784Z,22.29
2023-03-16T17:57:34.114Z,22.29
2023-03-16T18:00:02.281Z,22.27
2023-03-16T18:02:41.491Z,22.30
2023-03-16T18:05:20.976Z,22.25
2023-03-16T18:07:48.123Z,22.23
2023-03-16T18:10:24.290Z,22.27
2023-03-16T18:12:57.056Z,22.25
2023-03-16T18:15:29.623Z,22.24
2023-03-16T18:17:56.828Z,22.19
2023-03-16T18:20:34.448Z,22.23
2023-03-16T18:23:03.489Z,22.20
2023-03-16T18:25:36.236Z,22.20
2023-03-16T18:28:02.982Z,22.08
2023-03-16T18:30:30.938Z,21.97
2023-03-16T18:33:03.461Z,22.15
2023-03-16T18:35:30.985Z,22.13
2023-03-16T18:37:58.015Z,22.13
2023-03-16T18:40:25.934Z,22.11
2023-03-16T18:42:54.326Z,22.10
2023-03-16T18:45:23.655Z,22.08
2023-03-16T18:47:58.009Z,22.08
2023-03-16T18:50:30.432Z,22.05
2023-03-16T18:52:58.279Z,22.04
2023-03-16T18:55:25.658Z,22.03
2023-03-16T18:57:56.624Z,22.02
2023-03-16T19:00:29.798Z,21.94
2023-03-16T19:03:01.836Z,21.85
2023-03-16T19:05:35.920Z,21.79
2023-03-16T19:08:05.023Z,21.75
2023-03-16T19:10:37.130Z,21.71
2023-03-16T19:13:09.759Z,21.73
2023-03-16T19:15:39.482Z,21.71
2023-03-16T19:18:06.318Z,21.71
2023-03-16T19:20:34.887Z,21.72
2023-03-16T19:23:06.474Z,21.70
2023-03-16T19:25:38.861Z,21.61
2023-03-16T19:28:08.815Z,21.74
2023-03-16T19:30:36.893Z,21.73
2023-03-16T19:33:16.316Z,21.73
2023-03-16T19:35:51.559Z,21.70
2023-03-16T19:38:20.466Z,21.69
2023-03-16T19:40:52.056Z,21.62
2023-03-16T19:43:25.248Z,21.72
2023-03-16T19:45:52.663Z,21.70
2023-03-16T19:48:25.063Z,21.70
2023-03-16T19:50:52.099Z,21.70
2023-03-16T19:53:25.592Z,21.69
2023-03-16T19:55:53.605Z,21.69
2023-03-16T19:58:39.315Z,21.69
2023-03-16T20:01:13.023Z,21.69
2023-03-16T20:03:39.828Z,21.68
2023-03-16T20:06:09.649Z,21.55
2023-03-16T20:08:39.100Z,21.67
2023-03-16T20:11:14.081Z,21.66
2023-03-16T20:13:40.868Z,21.24
2023-03-16T20:16:08.337Z,21.49
2023-03-16T20:18:35.397Z,21.63
2023-03-16T20:21:02.161Z,21.55
2023-03-16T20:23:30.582Z,21.63
2023-03-16T20:26:02.078Z,21.61
2023-03-16T20:28:39.488Z,21.60
2023-03-16T20:31:09.147Z,21.58
2023-03-16T20:33:36.166Z,21.50
2023-03-16T20:36:03.052Z,21.59
2023-03-16T20:38:29.835Z,21.46
2023-03-16T20:40:56.703Z,21.41
2023-03-16T20:43:30.179Z,21.56
2023-03-16T20:46:02.284Z,21.38
2023-03-16T20:48:29.269Z,21.51
2023-03-16T20:50:59.921Z,21.44
2023-03-16T20:53:30.212Z,21.49
2023-03-16T20:55:56.996Z,21.53
2023-03-16T20:58:26.579Z,21.49
2023-03-16T21:00:57.918Z,21.52
2023-03-16T21:03:29.360Z,21.52
2023-03-16T21:05:59.796Z,21.51
2023-03-16T21:08:27.153Z,21.49
2023-03-16T21:10:57.125Z,21.48
2023-03-16T21:13:32.561Z,21.48
2023-03-16T21:16:02.276Z,21.47
2023-03-16T21:18:30.309Z,21.45
2023-03-16T21:20:58.877Z,21.45
2023-03-16T21:23:25.773Z,21.45
2023-03-16T21:26:01.386Z,21.40
2023-03-16T21:28:31.648Z,21.44
2023-03-16T21:30:59.158Z,21.40
2023-03-16T21:33:31.970Z,21.38
2023-03-16T21:36:00.808Z,21.33
2023-03-16T21:38:29.401Z,21.31
2023-03-16T21:40:56.479Z,21.24
2023-03-16T21:43:23.280Z,21.15
2023-03-16T21:45:51.919Z,21.11
2023-03-16T21:48:30.001Z,21.43
2023-03-16T21:50:59.572Z,21.44
2023-03-16T21:53:29.083Z,21.40
2023-03-16T21:55:56.499Z,21.46
2023-03-16T21:58:24.247Z,21.47
2023-03-16T22:00:52.690Z,21.48
2023-03-16T22:03:24.348Z,21.48
2023-03-16T22:05:52.260Z,21.48
2023-03-16T22:08:22.251Z,21.49
2023-03-16T22:10:49.638Z,21.36
2023-03-16T22:13:18.927Z,21.39
2023-03-16T22:15:48.424Z,21.44
2023-03-16T22:18:37.107Z,21.53
2023-03-16T22:21:19.963Z,21.30
2023-03-16T22:23:48.538Z,21.52
2023-03-16T22:26:22.450Z,21.52
2023-03-16T22:28:56.042Z,21.52
2023-03-16T22:31:32.909Z,21.48
2023-03-16T22:34:00.720Z,21.33
2023-03-16T22:36:28.175Z,21.30
2023-03-16T22:39:12.229Z,21.29
2023-03-16T22:41:39.585Z,21.44
2023-03-16T22:44:11.400Z,21.50
2023-03-16T22:46:38.087Z,21.32
2023-03-16T22:49:12.589Z,21.39
2023-03-16T22:51:39.394Z,21.46
2023-03-16T22:54:11.171Z,21.45
2023-03-16T22:56:39.191Z,21.43
2023-03-16T22:59:11.367Z,21.41
2023-03-16T23:01:43.573Z,21.43
2023-03-16T23:04:23.512Z,21.41
2023-03-16T23:06:53.008Z,21.40
2023-03-16T23:09:21.698Z,21.40
2023-03-16T23:11:53.929Z,21.39
2023-03-16T23:14:27.367Z,21.38
2023-03-16T23:16:54.592Z,21.37
2023-03-16T23:19:33.893Z,21.35
2023-03-16T23:22:05.830Z,21.26
2023-03-16T23:24:33.722Z,21.34
2023-03-16T23:27:01.168Z,21.26
2023-03-16T23:29:28.507Z,21.17
2023-03-16T23:31:55.133Z,21.30
2023-03-16T23:34:24.393Z,21.27
2023-03-16T23:36:51.715Z,21.30
2023-03-16T23:39:19.009Z,21.29
2023-03-16T23:41:48.591Z,21.27
2023-03-16T23:44:19.254Z,21.16
2023-03-16T23:46:45.839Z,21.27
2023-03-16T23:49:19.070Z,21.26
2023-03-16T23:51:46.400Z,21.25
2023-03-16T23:54:23.198Z,21.25
2023-03-16T23:56:50.614Z,21.24
2023-03-16T23:59:17.774Z,21.23
